Time;durP1;ratioP1;P1;durP2;ratioP2;P2;SDS_P1;SDS_P2;PMS_P1;PMS_P2;Temp;Humidity;BMP_temperature;BMP_pressure;BME280_temperature;BME280_humidity;BME280_pressure;Samples;Min_cycle;Max_cycle;Signal;HPM_P1;HPM_P2
2024/02/29 00:02:01;;;;;;;;;0.00;0.00;;;;;13.64;100.00;101523.19;6293889;22;28406;-82
2024/02/29 00:04:28;;;;;;;;;0.00;0.00;;;;;13.68;100.00;101521.34;6267183;22;28444;-82
2024/02/29 00:06:57;;;;;;;;;0.00;0.00;;;;;13.67;100.00;101517.88;6266694;22;28413;-82
2024/02/29 00:09:22;;;;;;;;;0.00;0.00;;;;;13.71;100.00;101514.25;6293982;22;28646;-82
2024/02/29 00:11:48;;;;;;;;;0.00;0.00;;;;;13.67;100.00;101510.03;6292614;22;53658;-82
2024/02/29 00:14:13;;;;;;;;;0.00;0.00;;;;;13.68;100.00;101513.47;6266626;22;28377;-81
2024/02/29 00:16:44;;;;;;;;;0.00;0.00;;;;;13.64;100.00;101507.47;6294679;22;28337;-83
2024/02/29 00:19:10;;;;;;;;;0.00;0.00;;;;;13.69;100.00;101492.50;6292391;22;29664;-82
2024/02/29 00:21:35;;;;;;;;;0.00;0.00;;;;;13.66;100.00;101489.97;6293744;22;28289;-82
2024/02/29 00:24:00;;;;;;;;;0.00;0.00;;;;;13.69;100.00;101491.66;6293140;22;43273;-82
2024/02/29 00:26:26;;;;;;;;;0.00;0.00;;;;;13.71;100.00;101480.25;6293131;22;29242;-82
2024/02/29 00:28:51;;;;;;;;;0.00;0.00;;;;;13.67;100.00;101491.72;6293660;22;27896;-82
2024/02/29 00:31:17;;;;;;;;;0.00;0.00;;;;;13.73;100.00;101474.97;6293408;22;49112;-82
2024/02/29 00:33:42;;;;;;;;;0.00;0.00;;;;;13.71;100.00;101468.94;6293956;22;28582;-82
2024/02/29 00:36:08;;;;;;;;;0.00;0.00;;;;;13.75;100.00;101468.78;6293091;22;54711;-81
2024/02/29 00:38:33;;;;;;;;;0.00;0.00;;;;;13.76;100.00;101459.16;6293704;22;28489;-82
2024/02/29 00:40:58;;;;;;;;;0.00;0.00;;;;;13.75;100.00;101450.47;6292476;22;52622;-82
2024/02/29 00:43:24;;;;;;;;;0.00;0.00;;;;;13.71;100.00;101456.69;6265143;22;38432;-82
2024/02/29 00:45:49;;;;;;;;;3.00;3.00;;;;;13.75;100.00;101445.22;6292400;22;50543;-81
2024/02/29 00:48:15;;;;;;;;;0.00;0.00;;;;;13.73;100.00;101440.94;6293690;22;28391;-82
2024/02/29 00:50:40;;;;;;;;;0.00;0.00;;;;;13.68;100.00;101442.84;6294267;22;28367;-82
2024/02/29 00:53:05;;;;;;;;;0.00;0.00;;;;;13.69;100.00;101437.56;6292890;22;54134;-82
2024/02/29 00:55:31;;;;;;;;;0.00;0.00;;;;;13.66;100.00;101427.19;6290812;22;52641;-81
2024/02/29 00:57:56;;;;;;;;;0.00;0.00;;;;;13.62;100.00;101422.97;6292006;22;47590;-81
2024/02/29 01:00:21;;;;;;;;;0.00;0.00;;;;;13.62;100.00;101422.13;6292064;22;44613;-82
2024/02/29 01:02:47;;;;;;;;;0.00;0.00;;;;;13.62;100.00;101422.97;6293301;22;39636;-82
2024/02/29 01:05:13;;;;;;;;;0.00;0.00;;;;;13.67;100.00;101422.81;6293900;22;28389;-80
2024/02/29 01:07:40;;;;;;;;;0.00;0.00;;;;;13.69;100.00;101411.41;6294033;22;28305;-82
2024/02/29 01:10:07;;;;;;;;;0.00;0.00;;;;;13.64;100.00;101409.84;6293181;22;28216;-82
2024/02/29 01:12:34;;;;;;;;;0.00;0.00;;;;;13.63;100.00;101405.50;6292996;22;28390;-82
2024/02/29 01:15:00;;;;;;;;;0.00;0.00;;;;;13.55;100.00;101403.97;6265710;22;28412;-82
2024/02/29 01:17:25;;;;;;;;;0.00;0.00;;;;;13.59;100.00;101406.50;6292529;22;46221;-82
2024/02/29 01:19:50;;;;;;;;;0.00;0.00;;;;;13.63;100.00;101395.03;6293774;22;28380;-82
2024/02/29 01:22:16;;;;;;;;;0.00;0.00;;;;;13.44;100.00;101392.13;6292695;22;53899;-82
2024/02/29 01:24:41;;;;;;;;;0.00;0.00;;;;;13.54;100.00;101396.19;6293841;22;28401;-81
2024/02/29 01:27:07;;;;;;;;;0.00;0.00;;;;;13.55;100.00;101387.44;6291950;22;41929;-82
2024/02/29 01:29:32;;;;;;;;;0.00;0.00;;;;;13.58;100.00;101386.47;6266590;22;28373;-82
2024/02/29 01:31:58;;;;;;;;;0.00;0.00;;;;;13.59;100.00;101370.72;6292510;22;50587;-82
2024/02/29 01:34:23;;;;;;;;;0.00;0.00;;;;;13.57;100.00;101369.94;6293668;22;28246;-82
2024/02/29 01:36:48;;;;;;;;;0.67;0.67;;;;;13.59;100.00;101362.88;6265427;22;53433;-82
2024/02/29 01:39:13;;;;;;;;;0.00;0.00;;;;;13.62;100.00;101362.78;6292559;22;47366;-82
2024/02/29 01:41:39;;;;;;;;;0.00;0.00;;;;;13.64;100.00;101354.91;6265326;22;36102;-82
2024/02/29 01:44:04;;;;;;;;;0.00;0.00;;;;;13.65;100.00;101360.09;6292724;22;51742;-82
2024/02/29 01:46:30;;;;;;;;;0.00;0.00;;;;;13.65;100.00;101357.47;6292907;22;45402;-82
2024/02/29 01:48:56;;;;;;;;;0.00;0.00;;;;;13.60;100.00;101351.53;6292915;22;28364;-82
2024/02/29 01:51:21;;;;;;;;;0.00;0.00;;;;;13.65;100.00;101353.97;6265453;22;52189;-82
2024/02/29 01:53:46;;;;;;;;;0.00;0.00;;;;;13.62;100.00;101344.50;6266403;22;29158;-82
2024/02/29 01:56:15;;;;;;;;;0.00;0.00;;;;;13.62;100.00;101336.63;6293317;22;34292;-82
2024/02/29 01:58:41;;;;;;;;;0.00;0.00;;;;;13.59;100.00;101334.09;6267279;22;28389;-82
2024/02/29 02:01:06;;;;;;;;;0.00;0.00;;;;;13.60;100.00;101329.75;6266242;22;28571;-82
2024/02/29 02:03:32;;;;;;;;;0.00;0.00;;;;;13.58;100.00;101316.72;6293394;22;28403;-82
2024/02/29 02:05:58;;;;;;;;;0.00;0.00;;;;;13.60;100.00;101319.28;6265978;22;28306;-82
2024/02/29 02:08:26;;;;;;;;;0.00;0.00;;;;;13.57;100.00;101307.16;6292001;22;53079;-82
2024/02/29 02:10:51;;;;;;;;;0.00;0.00;;;;;13.58;100.00;101308.00;6265671;22;28285;-82
2024/02/29 02:13:16;;;;;;;;;0.00;0.00;;;;;13.61;100.00;101303.53;6292648;22;43401;-83
2024/02/29 02:15:42;;;;;;;;;0.00;0.00;;;;;13.58;100.00;101308.88;6292978;22;32362;-82
2024/02/29 02:18:07;;;;;;;;;0.00;0.00;;;;;13.60;100.00;101293.13;6265404;22;50045;-83
2024/02/29 02:20:34;;;;;;;;;0.00;0.00;;;;;13.66;100.00;101292.94;6292764;22;48872;-82
2024/02/29 02:22:59;;;;;;;;;0.00;0.00;;;;;13.65;100.00;101288.59;6265707;22;29573;-82
2024/02/29 02:25:25;;;;;;;;;0.00;0.00;;;;;13.61;100.00;101282.59;6292163;22;55108;-82
2024/02/29 02:27:50;;;;;;;;;0.00;0.00;;;;;13.69;100.00;101275.38;6292484;22;36344;-82
2024/02/29 02:30:15;;;;;;;;;0.00;0.00;;;;;13.65;100.00;101271.16;6292039;22;46993;-82
2024/02/29 02:32:41;;;;;;;;;0.00;0.00;;;;;13.64;100.00;101271.19;6292839;22;28363;-82
2024/02/29 02:35:06;;;;;;;;;0.00;0.00;;;;;13.65;100.00;101265.91;6266321;22;28317;-82
2024/02/29 02:37:33;;;;;;;;;0.50;0.50;;;;;13.64;100.00;101269.44;6293095;22;28308;-83
2024/02/29 02:39:58;;;;;;;;;0.00;0.00;;;;;13.67;100.00;101264.09;6293117;22;28332;-82
2024/02/29 02:42:24;;;;;;;;;0.00;0.00;;;;;13.79;100.00;101265.44;6265588;22;29983;-82
2024/02/29 02:44:49;;;;;;;;;0.00;0.00;;;;;13.75;100.00;101251.59;6266348;22;28301;-83
2024/02/29 02:47:15;;;;;;;;;0.00;0.00;;;;;13.74;100.00;101244.69;6291528;22;45130;-82
2024/02/29 02:49:41;;;;;;;;;0.00;0.00;;;;;13.75;100.00;101240.28;6265109;22;39296;-82
2024/02/29 02:52:07;;;;;;;;;0.00;0.00;;;;;13.78;100.00;101239.31;6292258;22;43524;-82
2024/02/29 02:54:33;;;;;;;;;0.00;0.00;;;;;13.84;100.00;101239.97;6293154;22;28502;-82
2024/02/29 02:56:58;;;;;;;;;0.00;0.00;;;;;13.87;100.00;101229.41;6265776;22;28359;-82
2024/02/29 02:59:24;;;;;;;;;0.00;0.00;;;;;13.87;100.00;101226.81;6292521;22;50182;-82
2024/02/29 03:01:49;;;;;;;;;0.00;0.00;;;;;13.96;100.00;101220.38;6293558;22;29353;-82
2024/02/29 03:04:15;;;;;;;;;2.00;0.50;;;;;13.98;100.00;101222.94;6291840;22;35926;-82
2024/02/29 03:06:40;;;;;;;;;0.00;0.00;;;;;13.91;100.00;101224.91;6265603;22;28452;-82
2024/02/29 03:09:07;;;;;;;;;0.00;0.00;;;;;13.98;100.00;101215.09;6292758;22;28479;-81
2024/02/29 03:11:33;;;;;;;;;0.00;0.00;;;;;14.01;100.00;101205.38;6260275;22;30395;-82
2024/02/29 03:13:59;;;;;;;;;0.00;0.00;;;;;13.98;100.00;101202.84;6235297;22;28462;-82
2024/02/29 03:16:25;;;;;;;;;0.00;0.00;;;;;14.02;100.00;101200.97;6261902;22;28249;-82
2024/02/29 03:18:51;;;;;;;;;0.00;0.00;;;;;14.05;100.00;101198.25;6234651;22;28385;-82
2024/02/29 03:21:17;;;;;;;;;0.00;0.00;;;;;14.06;100.00;101199.94;6234231;22;29383;-82
2024/02/29 03:23:43;;;;;;;;;0.00;0.00;;;;;13.99;100.00;101190.63;6234071;22;29515;-82
2024/02/29 03:26:08;;;;;;;;;0.00;0.00;;;;;14.00;100.00;101181.84;6233878;22;44041;-82
2024/02/29 03:28:35;;;;;;;;;0.00;0.00;;;;;13.98;100.00;101179.28;6261709;22;28467;-81
2024/02/29 03:31:00;;;;;;;;;0.00;0.00;;;;;13.91;100.00;101183.03;6234005;22;53795;-83
2024/02/29 03:33:26;;;;;;;;;0.00;0.00;;;;;13.93;100.00;101173.38;6234623;22;28474;-82
2024/02/29 03:35:52;;;;;;;;;0.00;0.00;;;;;13.94;100.00;101172.47;6260985;22;28353;-82
2024/02/29 03:38:18;;;;;;;;;0.00;0.00;;;;;13.92;100.00;101169.06;6234506;22;35694;-82
2024/02/29 03:40:44;;;;;;;;;0.00;0.00;;;;;13.92;100.00;101161.19;6262186;22;29254;-80
2024/02/29 03:43:09;;;;;;;;;0.00;0.00;;;;;13.94;100.00;101157.59;6261920;22;28317;-82
2024/02/29 03:45:35;;;;;;;;;0.00;0.00;;;;;13.89;100.00;101154.31;6260214;22;28263;-82
2024/02/29 03:48:00;;;;;;;;;0.00;0.00;;;;;13.91;100.00;101157.75;6234391;22;31544;-82
2024/02/29 03:50:26;;;;;;;;;0.00;0.00;;;;;13.90;100.00;101155.16;6260330;22;40537;-82
2024/02/29 03:52:51;;;;;;;;;0.00;0.00;;;;;13.92;100.00;101151.56;6261435;22;28367;-82
2024/02/29 03:55:16;;;;;;;;;0.00;0.00;;;;;13.94;100.00;101149.75;6262191;22;28400;-82
2024/02/29 03:57:42;;;;;;;;;0.00;0.00;;;;;13.93;100.00;101140.22;6233696;22;47083;-82
2024/02/29 04:00:10;;;;;;;;;0.00;0.00;;;;;13.90;100.00;101139.47;6260277;22;52882;-81
2024/02/29 04:02:37;;;;;;;;;1.50;0.00;;;;;13.88;100.00;101146.53;6261916;22;28413;-82
2024/02/29 04:05:04;;;;;;;;;0.00;0.00;;;;;13.89;100.00;101132.50;6261720;22;28323;-81
2024/02/29 04:07:30;;;;;;;;;0.00;0.00;;;;;13.83;100.00;101136.22;6260543;22;28515;-82
2024/02/29 04:09:55;;;;;;;;;0.67;0.67;;;;;13.86;100.00;101130.88;6270354;22;58349;-82
2024/02/29 04:12:21;;;;;;;;;0.00;0.00;;;;;13.86;100.00;101133.50;6292037;22;28361;-82
2024/02/29 04:14:46;;;;;;;;;0.00;0.00;;;;;13.86;100.00;101130.03;6290757;22;28380;-82
2024/02/29 04:17:12;;;;;;;;;0.00;0.00;;;;;13.72;100.00;101122.66;6291580;22;54841;-82
2024/02/29 04:19:38;;;;;;;;;0.00;0.00;;;;;13.73;100.00;101125.22;6263339;22;58227;-82
2024/02/29 04:22:03;;;;;;;;;0.00;0.00;;;;;13.74;100.00;101120.84;6291169;22;28465;-82
2024/02/29 04:24:29;;;;;;;;;0.00;0.00;;;;;13.80;100.00;101122.38;6264601;22;28373;-82
2024/02/29 04:26:54;;;;;;;;;0.00;0.00;;;;;13.73;100.00;101120.00;6290643;22;49925;-82
2024/02/29 04:29:19;;;;;;;;;0.00;0.00;;;;;13.76;100.00;101116.41;6291989;22;29999;-82
2024/02/29 04:31:48;;;;;;;;;0.00;0.00;;;;;13.81;100.00;101116.25;6293026;22;28385;-82
2024/02/29 04:34:13;;;;;;;;;0.00;0.00;;;;;13.79;100.00;101111.06;6266969;22;28369;-81
2024/02/29 04:36:39;;;;;;;;;1.00;1.00;;;;;13.74;100.00;101113.00;6293650;22;28384;-82
2024/02/29 04:39:04;;;;;;;;;0.00;0.00;;;;;13.67;100.00;101108.88;6293297;22;29262;-82
2024/02/29 04:41:29;;;;;;;;;1.00;0.00;;;;;13.71;100.00;101106.13;6292207;22;43182;-82
2024/02/29 04:43:55;;;;;;;;;0.00;0.00;;;;;13.97;100.00;101096.47;6293693;22;28304;-82
2024/02/29 04:46:21;;;;;;;;;0.00;0.00;;;;;13.79;100.00;101102.38;6266141;22;28460;-82
2024/02/29 04:48:46;;;;;;;;;0.00;0.00;;;;;13.79;100.00;101091.91;6294099;22;28357;-82
2024/02/29 04:51:11;;;;;;;;;0.00;0.00;;;;;13.80;100.00;101090.97;6265715;22;44310;-82
2024/02/29 04:53:37;;;;;;;;;0.00;0.00;;;;;13.80;100.00;101089.25;6293679;22;50506;-82
2024/02/29 04:56:04;;;;;;;;;0.00;0.00;;;;;13.82;100.00;101081.31;6293233;22;49844;-82
2024/02/29 04:58:29;;;;;;;;;0.00;0.00;;;;;13.80;100.00;101085.75;6292799;22;29401;-82
2024/02/29 05:00:55;;;;;;;;;0.00;0.00;;;;;13.80;100.00;101080.53;6266143;22;28542;-82
2024/02/29 05:03:21;;;;;;;;;0.00;0.00;;;;;13.83;100.00;101080.41;6266288;22;28415;-82
2024/02/29 05:05:46;;;;;;;;;0.00;0.00;;;;;13.82;100.00;101069.09;6265644;22;28354;-82
2024/02/29 05:08:12;;;;;;;;;0.00;0.00;;;;;13.85;100.00;101068.13;6266112;22;39994;-82
2024/02/29 05:10:39;;;;;;;;;0.00;0.00;;;;;13.90;100.00;101074.06;6293859;22;28333;-81
2024/02/29 05:13:04;;;;;;;;;0.00;0.00;;;;;13.90;100.00;101059.19;6265913;22;44550;-82
2024/02/29 05:15:31;;;;;;;;;0.00;0.00;;;;;13.87;100.00;101068.91;6292917;22;53409;-82
2024/02/29 05:17:58;;;;;;;;;0.00;0.00;;;;;13.81;100.00;101067.38;6266097;22;28301;-82
2024/02/29 05:20:23;;;;;;;;;0.00;0.00;;;;;13.84;100.00;101053.34;6265041;22;42309;-82
2024/02/29 05:22:53;;;;;;;;;0.00;0.00;;;;;13.81;100.00;101054.31;6294411;22;28458;-82
2024/02/29 05:25:21;;;;;;;;;0.00;0.00;;;;;13.87;100.00;101047.97;6293381;22;28692;-82
2024/02/29 05:27:47;;;;;;;;;0.00;0.00;;;;;13.90;100.00;101045.25;6293974;22;28404;-82
2024/02/29 05:30:14;;;;;;;;;0.00;0.00;;;;;13.89;100.00;101046.16;6293868;22;28384;-83
2024/02/29 05:32:39;;;;;;;;;0.00;0.00;;;;;13.88;100.00;101049.72;6293299;22;28333;-81
2024/02/29 05:35:05;;;;;;;;;0.00;0.00;;;;;13.90;100.00;101043.50;6266112;22;28460;-82
2024/02/29 05:37:31;;;;;;;;;0.00;0.00;;;;;13.92;100.00;101032.97;6293383;22;28438;-82
2024/02/29 05:39:59;;;;;;;;;0.00;0.00;;;;;13.97;100.00;101038.00;6293138;22;48543;-82
2024/02/29 05:42:26;;;;;;;;;0.00;0.00;;;;;13.99;100.00;101025.75;6293245;22;28408;-83
2024/02/29 05:44:52;;;;;;;;;0.00;0.00;;;;;13.99;100.00;101029.22;6293805;22;28249;-82
2024/02/29 05:47:17;;;;;;;;;0.00;0.00;;;;;13.79;100.00;101040.44;6293671;22;30310;-84
2024/02/29 05:49:43;;;;;;;;;0.00;0.00;;;;;13.94;100.00;101023.28;6265677;22;28525;-82
2024/02/29 05:52:08;;;;;;;;;0.00;0.00;;;;;13.93;100.00;101022.44;6293468;22;28440;-80
2024/02/29 05:54:33;;;;;;;;;0.00;0.00;;;;;13.91;100.00;101028.63;6293449;22;52297;-82
2024/02/29 05:56:58;;;;;;;;;0.00;0.00;;;;;13.98;100.00;101024.03;6292905;22;57639;-82
2024/02/29 05:59:24;;;;;;;;;0.00;0.00;;;;;14.01;100.00;101016.06;6293021;22;53716;-82
2024/02/29 06:01:50;;;;;;;;;0.00;0.00;;;;;14.02;100.00;101016.00;6266732;22;28286;-82
2024/02/29 06:04:16;;;;;;;;;0.00;0.00;;;;;14.00;100.00;101004.72;6294174;22;28459;-80
2024/02/29 06:06:41;;;;;;;;;0.00;0.00;;;;;14.01;100.00;101003.81;6293573;22;29096;-80
2024/02/29 06:09:07;;;;;;;;;0.00;0.00;;;;;13.98;100.00;101008.31;6293764;22;28378;-81
2024/02/29 06:11:32;;;;;;;;;0.00;0.00;;;;;14.00;100.00;101001.25;6292797;22;39465;-81
2024/02/29 06:13:59;;;;;;;;;0.00;0.00;;;;;14.00;100.00;101006.50;6265771;22;53658;-81
2024/02/29 06:16:26;;;;;;;;;0.00;0.00;;;;;13.98;100.00;100992.63;6294009;22;28634;-81
2024/02/29 06:18:51;;;;;;;;;0.00;0.00;;;;;13.95;100.00;100996.22;6293400;22;28346;-81
2024/02/29 06:21:17;;;;;;;;;0.00;0.00;;;;;13.99;100.00;100989.94;6266306;22;42279;-81
2024/02/29 06:23:42;;;;;;;;;0.00;0.00;;;;;13.99;100.00;100982.09;6265487;22;52847;-81
2024/02/29 06:26:07;;;;;;;;;0.00;0.00;;;;;14.02;100.00;100983.72;6291966;22;53412;-81
2024/02/29 06:28:33;;;;;;;;;0.00;0.00;;;;;14.05;100.00;100986.25;6264497;22;51876;-83
2024/02/29 06:30:58;;;;;;;;;0.00;0.00;;;;;14.03;100.00;100988.06;6293238;22;28499;-80
2024/02/29 06:33:24;;;;;;;;;0.00;0.00;;;;;14.02;100.00;100979.38;6291806;22;55747;-83
2024/02/29 06:35:49;;;;;;;;;6.00;6.00;;;;;14.01;100.00;100982.88;6292942;22;29255;-81
2024/02/29 06:38:16;;;;;;;;;0.00;0.00;;;;;14.01;100.00;100977.66;6293387;22;28516;-82
2024/02/29 06:40:42;;;;;;;;;0.00;0.00;;;;;14.09;100.00;100972.13;6292884;22;28394;-82
2024/02/29 06:43:07;;;;;;;;;0.00;0.00;;;;;14.08;100.00;100975.66;6265759;22;28651;-84
2024/02/29 06:45:33;;;;;;;;;0.00;0.00;;;;;14.08;100.00;100979.13;6240130;22;43895;-84
2024/02/29 06:47:58;;;;;;;;;0.00;0.00;;;;;14.08;100.00;100959.97;6264913;22;42657;-84
2024/02/29 06:50:24;;;;;;;;;0.00;0.00;;;;;14.07;100.00;100960.84;6266054;22;28400;-83
2024/02/29 06:52:49;;;;;;;;;0.00;0.00;;;;;14.05;100.00;100957.44;6292660;22;48850;-82
2024/02/29 06:55:14;;;;;;;;;0.00;0.00;;;;;14.13;100.00;100961.47;6265710;22;28593;-84
2024/02/29 06:57:40;;;;;;;;;0.00;0.00;;;;;14.10;100.00;100961.59;6237744;22;55662;-83
2024/02/29 07:00:08;;;;;;;;;0.00;0.00;;;;;14.16;100.00;100955.25;6237870;22;28384;-84
2024/02/29 07:02:33;;;;;;;;;0.00;0.00;;;;;14.20;100.00;100959.44;6265580;22;28447;-82
2024/02/29 07:04:59;;;;;;;;;0.00;0.00;;;;;14.20;100.00;100969.06;6293639;22;29016;-82
2024/02/29 07:07:25;;;;;;;;;0.00;0.00;;;;;14.21;100.00;100966.41;6293888;22;28417;-85
2024/02/29 07:09:52;;;;;;;;;0.00;0.00;;;;;14.23;100.00;100967.19;6266422;22;28222;-83
2024/02/29 07:12:18;;;;;;;;;0.00;0.00;;;;;14.23;100.00;100959.31;6266273;22;28519;-86
2024/02/29 07:14:43;;;;;;;;;0.00;0.00;;;;;14.20;100.00;100953.38;6292485;22;29218;-82
2024/02/29 07:17:09;;;;;;;;;0.00;0.00;;;;;14.20;100.00;100955.97;6293297;22;28736;-83
2024/02/29 07:19:34;;;;;;;;;0.00;0.00;;;;;14.18;100.00;100949.97;6265079;22;47566;-83
2024/02/29 07:22:00;;;;;;;;;0.00;0.00;;;;;14.20;100.00;100945.50;6240394;22;28483;-83
2024/02/29 07:24:26;;;;;;;;;0.00;0.00;;;;;14.18;100.00;100944.72;6291630;22;29066;-84
2024/02/29 07:26:53;;;;;;;;;0.00;0.00;;;;;14.15;100.00;100943.06;6292699;22;28261;-82
2024/02/29 07:29:18;;;;;;;;;0.00;0.00;;;;;14.15;100.00;100937.81;6291297;22;28339;-83
2024/02/29 07:31:45;;;;;;;;;0.00;0.00;;;;;14.23;100.00;100929.69;6292923;22;28400;-83
2024/02/29 07:34:10;;;;;;;;;0.00;0.00;;;;;14.23;100.00;100932.31;6292394;22;28479;-83
2024/02/29 07:36:37;;;;;;;;;0.00;0.00;;;;;14.20;100.00;100928.03;6264328;22;28404;-83
2024/02/29 07:39:02;;;;;;;;;0.00;0.00;;;;;14.16;100.00;100936.09;6283075;22;28383;-84
2024/02/29 07:41:28;;;;;;;;;0.00;0.00;;;;;14.11;100.00;100928.41;6290324;22;28537;-83
2024/02/29 07:43:53;;;;;;;;;0.00;0.00;;;;;14.13;100.00;100937.03;6288530;22;32203;-81
2024/02/29 07:46:19;;;;;;;;;0.00;0.00;;;;;14.09;100.00;100933.69;6291537;22;29458;-84
2024/02/29 07:48:44;;;;;;;;;0.00;0.00;;;;;14.14;100.00;100918.66;6291272;22;28358;-82
2024/02/29 07:51:10;;;;;;;;;0.00;0.00;;;;;14.13;100.00;100927.44;6291145;22;54344;-82
2024/02/29 07:53:35;;;;;;;;;0.00;0.00;;;;;14.16;100.00;100917.75;6264830;22;28369;-83
2024/02/29 07:56:04;;;;;;;;;0.00;0.00;;;;;14.16;100.00;100912.53;6292156;22;28366;-83
2024/02/29 07:58:30;;;;;;;;;0.00;0.00;;;;;14.13;100.00;100916.09;6288330;22;28460;-83
2024/02/29 08:00:56;;;;;;;;;1.00;1.00;;;;;14.14;100.00;100904.72;6263956;22;28392;-84
2024/02/29 08:03:21;;;;;;;;;0.00;0.00;;;;;14.17;100.00;100907.22;6291071;22;29194;-81
2024/02/29 08:05:47;;;;;;;;;0.00;0.00;;;;;14.13;100.00;100901.25;6291947;22;28384;-84
2024/02/29 08:08:12;;;;;;;;;0.00;0.00;;;;;14.09;100.00;100899.66;6265855;22;28411;-83
2024/02/29 08:10:37;;;;;;;;;0.00;0.00;;;;;14.11;100.00;100887.41;6291972;22;51746;-84
2024/02/29 08:13:03;;;;;;;;;0.00;0.00;;;;;14.10;100.00;100890.91;6264696;22;28424;-83
2024/02/29 08:15:28;;;;;;;;;0.00;0.00;;;;;14.14;100.00;100892.47;6293024;22;27982;-83
2024/02/29 08:17:54;;;;;;;;;0.00;0.00;;;;;14.13;100.00;100882.94;6292776;22;43502;-83
2024/02/29 08:20:20;;;;;;;;;0.00;0.00;;;;;14.13;100.00;100882.06;6292881;22;28438;-84
2024/02/29 08:22:53;;;;;;;;;0.00;0.00;;;;;14.11;100.00;100878.66;6291828;22;28659;-84
2024/02/29 08:25:21;;;;;;;;;0.00;0.00;;;;;14.12;100.00;100881.22;6265655;22;28329;-84
2024/02/29 08:27:48;;;;;;;;;0.00;0.00;;;;;14.12;100.00;100888.22;6264672;22;28378;-85
2024/02/29 08:30:13;;;;;;;;;0.00;0.00;;;;;14.12;100.00;100876.00;6292347;22;28648;-84
2024/02/29 08:32:39;;;;;;;;;0.00;0.00;;;;;14.14;100.00;100876.78;6293491;22;29565;-85
2024/02/29 08:35:07;;;;;;;;;0.00;0.00;;;;;14.11;100.00;100870.81;6265724;22;28597;-84
2024/02/29 08:37:32;;;;;;;;;0.00;0.00;;;;;14.14;100.00;100866.31;6292840;22;28311;-84
2024/02/29 08:39:58;;;;;;;;;2.50;0.00;;;;;14.27;100.00;100877.13;6292613;22;28496;-85
2024/02/29 08:42:26;;;;;;;;;0.00;0.00;;;;;14.27;100.00;100863.19;6264240;22;31077;-84
2024/02/29 08:44:51;;;;;;;;;0.00;0.00;;;;;14.30;100.00;100869.16;6267377;22;28315;-85
2024/02/29 08:47:17;;;;;;;;;0.00;0.00;;;;;14.36;100.00;100861.91;6294761;22;28451;-84
2024/02/29 08:49:42;;;;;;;;;0.00;0.00;;;;;14.39;100.00;100849.53;6292604;22;27824;-84
2024/02/29 08:52:08;;;;;;;;;0.00;0.00;;;;;14.46;100.00;100852.75;6265984;22;28778;-84
2024/02/29 08:54:34;;;;;;;;;0.00;0.00;;;;;14.45;100.00;100851.94;6290544;22;34757;-84
2024/02/29 08:57:03;;;;;;;;;0.00;0.00;;;;;14.44;100.00;100836.28;6264669;22;28491;-85
2024/02/29 08:59:28;;;;;;;;;0.00;0.00;;;;;14.39;100.00;100835.63;6293020;22;28510;-84
2024/02/29 09:01:54;;;;;;;;;0.00;0.00;;;;;14.46;100.00;100829.19;6293927;22;28351;-85
2024/02/29 09:04:20;;;;;;;;;0.00;0.00;;;;;14.41;100.00;100829.41;6292779;22;28380;-85
2024/02/29 09:06:46;;;;;;;;;0.00;0.00;;;;;14.43;100.00;100831.94;6293605;22;28250;-84
2024/02/29 09:09:11;;;;;;;;;0.00;0.00;;;;;14.44;100.00;100836.28;6292898;22;28332;-84
2024/02/29 09:11:38;;;;;;;;;0.00;0.00;;;;;14.40;100.00;100816.38;6292526;22;28557;-84
2024/02/29 09:14:04;;;;;;;;;0.00;0.00;;;;;14.40;100.00;100814.59;6292951;22;28580;-85
2024/02/29 09:16:31;;;;;;;;;0.00;0.00;;;;;14.37;100.00;100814.72;6294943;22;28365;-86
2024/02/29 09:18:57;;;;;;;;;0.00;0.00;;;;;14.18;100.00;100814.66;6268767;22;28332;-88
2024/02/29 09:21:25;;;;;;;;;0.00;0.00;;;;;14.26;100.00;100814.34;6293211;22;29054;-87
2024/02/29 09:23:50;;;;;;;;;0.00;0.00;;;;;14.23;100.00;100801.41;6266329;22;28345;-89
2024/02/29 09:26:18;;;;;;;;;0.00;0.00;;;;;14.27;100.00;100811.66;6265217;22;28499;-84
2024/02/29 09:28:44;;;;;;;;;0.00;0.00;;;;;14.32;100.00;100801.00;6293081;22;28329;-85
2024/02/29 09:31:13;;;;;;;;;0.00;0.00;;;;;14.27;100.00;100801.19;6293470;22;28650;-86
2024/02/29 09:33:39;;;;;;;;;0.00;0.00;;;;;14.28;100.00;100797.66;6294910;22;28409;-85
2024/02/29 09:36:07;;;;;;;;;0.00;0.00;;;;;14.38;100.00;100797.25;6265259;22;28274;-85
2024/02/29 09:38:32;;;;;;;;;0.00;0.00;;;;;14.44;100.00;100794.38;6291768;22;28522;-83
2024/02/29 09:40:58;;;;;;;;;0.00;0.00;;;;;14.50;100.00;100779.25;6291344;22;56849;-82
2024/02/29 09:43:23;;;;;;;;;0.00;0.00;;;;;14.51;100.00;100777.47;6263872;22;28791;-83
2024/02/29 09:45:50;;;;;;;;;0.00;0.00;;;;;14.53;100.00;100778.25;6265278;22;28396;-80
2024/02/29 09:48:16;;;;;;;;;0.00;0.00;;;;;14.54;100.00;100772.06;6291642;22;28270;-82
2024/02/29 09:50:42;;;;;;;;;0.00;0.00;;;;;14.57;100.00;100771.97;6291672;22;28317;-82
2024/02/29 09:53:09;;;;;;;;;0.00;0.00;;;;;14.58;100.00;100768.44;6265147;22;28348;-80
2024/02/29 09:55:35;;;;;;;;;0.00;0.00;;;;;14.66;100.00;100771.56;6291479;22;28311;-83
2024/02/29 09:58:01;;;;;;;;;0.00;0.00;;;;;14.71;100.00;100764.34;6264386;22;49835;-83
2024/02/29 10:00:26;;;;;;;;;0.00;0.00;;;;;14.74;100.00;100763.34;6292261;22;28707;-80
2024/02/29 10:02:52;;;;;;;;;0.00;0.00;;;;;14.81;100.00;100756.06;6292971;22;28403;-80
2024/02/29 10:05:19;;;;;;;;;0.00;0.00;;;;;14.85;100.00;100762.84;6292334;22;28466;-82
2024/02/29 10:07:46;;;;;;;;;0.00;0.00;;;;;14.95;100.00;100753.66;6290655;22;28510;-81
2024/02/29 10:10:16;;;;;;;;;0.00;0.00;;;;;14.96;100.00;100757.97;6263715;22;29927;-82
2024/02/29 10:12:43;;;;;;;;;0.00;0.00;;;;;14.97;100.00;100750.94;6291997;22;28521;-83
2024/02/29 10:15:10;;;;;;;;;0.00;0.00;;;;;15.04;100.00;100737.50;6291640;22;28403;-82
2024/02/29 10:17:44;;;;;;;;;0.00;0.00;;;;;15.04;100.00;100742.75;6291000;22;28775;-83
2024/02/29 10:20:11;;;;;;;;;0.00;0.00;;;;;15.08;100.00;100732.94;6291385;22;52172;-82
2024/02/29 10:22:39;;;;;;;;;0.00;0.00;;;;;15.14;100.00;100732.66;6290382;22;28662;-84
2024/02/29 10:25:10;;;;;;;;;0.00;0.00;;;;;15.21;100.00;100725.31;6291186;22;28320;-83
2024/02/29 10:27:36;;;;;;;;;0.00;0.00;;;;;15.33;100.00;100722.13;6291451;22;28357;-84
2024/02/29 10:30:01;;;;;;;;;0.00;0.00;;;;;15.28;100.00;100724.97;6290909;22;28448;-84
2024/02/29 10:32:27;;;;;;;;;0.00;0.00;;;;;15.24;100.00;100719.94;6289626;22;52415;-84
2024/02/29 10:34:52;;;;;;;;;0.00;0.00;;;;;15.25;100.00;100708.53;6290565;22;49314;-84
2024/02/29 10:37:18;;;;;;;;;0.00;0.00;;;;;15.26;100.00;100715.47;6270508;22;65855;-85
2024/02/29 10:39:43;;;;;;;;;0.00;0.00;;;;;15.23;100.00;100726.09;6246261;22;45329;-85
2024/02/29 10:42:09;;;;;;;;;0.00;0.00;;;;;15.23;100.00;100716.47;6219265;22;48387;-85
2024/02/29 10:44:35;;;;;;;;;0.00;0.00;;;;;15.27;100.00;100714.56;6246851;22;47814;-85
2024/02/29 10:47:03;;;;;;;;;0.00;0.00;;;;;15.31;100.00;100712.66;6247113;22;45230;-85
2024/02/29 10:49:41;;;;;;;;;0.00;0.00;;;;;15.30;100.00;100711.78;6244965;22;45638;-86
2024/02/29 10:52:18;;;;;;;;;0.00;0.00;;;;;15.33;100.00;100706.38;6246763;22;45265;-84
2024/02/29 10:55:02;;;;;;;;;0.00;0.00;;;;;15.20;100.00;100707.91;6273246;22;45436;-85
2024/02/29 10:57:33;;;;;;;;;0.00;0.00;;;;;15.13;100.00;100699.47;6274037;22;45329;-85
2024/02/29 11:00:03;;;;;;;;;0.00;0.00;;;;;15.12;100.00;100691.69;6245338;22;45353;-85
2024/02/29 11:02:29;;;;;;;;;3.50;3.50;;;;;15.06;100.00;100693.72;6270856;22;45173;-80
2024/02/29 11:04:55;;;;;;;;;0.00;0.00;;;;;15.09;100.00;100688.28;6245097;22;45160;-84
2024/02/29 11:07:20;;;;;;;;;0.00;0.00;;;;;15.12;100.00;100689.94;6254245;22;66774;-83
2024/02/29 11:09:46;;;;;;;;;0.00;0.00;;;;;15.06;100.00;100683.22;6244764;22;58584;-85
2024/02/29 11:12:13;;;;;;;;;0.00;0.00;;;;;15.10;100.00;100687.38;6254046;22;44954;-85
2024/02/29 11:14:55;;;;;;;;;;;;;;;;;;;;;